Flight Track Log - Related Links

Times and Time Zones

All times are in EDT time to prevent confusion due to time zone crossing. See the N790CA flight status page for this flight to view local times or setup timezone preferences in your user account.

Time Position Orientation Groundspeed Altitude Reporting Facility
EDT Latitude Longitude Course Direction KTS MPH feet Rate Location/Type
Thu 11:38:36 AM 34.3319 -77.8528 19° North 133 153 3,300  Level Washington Center
Thu 11:39:36 AM 34.3678 -77.8364 21° North 133 153 5,000 1,678 Climbing Washington Center
Thu 11:40:34 AM 34.4078 -77.8172 22° Northeast 139 160 6,600 1,563 Climbing Washington Center
Thu 11:41:35 AM 34.4353 -77.8003 27° Northeast 139 160 8,100 1,426 Climbing Washington Center
Thu 11:42:36 AM 34.4753 -77.7789 24° Northeast 144 166 9,500 1,462 Climbing Washington Center
Thu 11:43:00 AM 34.5955 -77.6903 27° Northeast  Level FlightAware Approximate
Thu 11:43:34 AM 34.5133 -77.7572 25° Northeast 144 166 11,000  Level Washington Center
Thu 11:44:34 AM 34.5533 -77.7331 26° Northeast 151 174 12,600 1,587 Climbing Washington Center
Thu 11:45:35 AM 34.5933 -77.7089 26° Northeast 151 174 14,200 1,438 Climbing Washington Center
Thu 11:46:35 AM 34.6333 -77.6844 27° Northeast 156 180 15,500 1,424 Climbing Washington Center
Thu 11:47:33 AM 34.6714 -77.6628 25° Northeast 156 180 17,000 1,261 Climbing Washington Center
Thu 11:48:34 AM 34.7136 -77.6386 25° Northeast 156 180 18,000 1,180 Climbing Washington Center
Thu 11:49:35 AM 34.7556 -77.6119 28° Northeast 156 180 19,400 1,339 Climbing Washington Center
Thu 11:50:35 AM 34.8000 -77.5825 29° Northeast 156 180 20,700 1,350 Climbing Washington Center
Thu 11:51:35 AM 34.8422 -77.5533 30° Northeast 156 180 22,100 1,289 Climbing Washington Center
Thu 11:52:36 AM 34.8886 -77.5292 23° Northeast 161 185 23,300 1,160 Climbing Washington Center
Thu 11:53:34 AM 34.9328 -77.4972 31° Northeast 173 199 24,400 1,119 Climbing Washington Center
Thu 11:54:34 AM 34.9811 -77.4706 24° Northeast 178 205 25,500 1,050 Climbing Washington Center
Thu 11:55:34 AM 35.0297 -77.4411 26° Northeast 183 211 26,500 992 Climbing Washington Center
Thu 11:56:35 AM 35.0781 -77.4117 26° Northeast 183 211 27,500 934 Climbing Washington Center
Thu 11:57:36 AM 35.1286 -77.3772 29° Northeast 188 216 28,400 793 Climbing Washington Center
Thu 11:58:36 AM 35.1772 -77.3481 26° Northeast 188 216 29,100 763 Climbing Washington Center
Thu 11:59:34 AM 35.2278 -77.3186 25° Northeast 193 222 29,900 756 Climbing Washington Center
Thu 12:00:35 PM 35.2803 -77.2867 26° Northeast 198 228 30,600 555 Climbing Washington Center
Thu 12:01:33 PM 35.3328 -77.2544 27° Northeast 198 228 31,000 202 Climbing Washington Center
Thu 12:02:34 PM 35.3897 -77.2175 28° Northeast 205 236 31,000  Level Washington Center
Thu 12:03:35 PM 35.4508 -77.1806 26° Northeast 221 254 31,000  Level Washington Center
Thu 12:04:35 PM 35.5139 -77.1436 25° Northeast 235 270 31,000  Level Washington Center
Thu 12:05:36 PM 35.5789 -77.1014 28° Northeast 246 283 31,000  Level Washington Center
Thu 12:06:35 PM 35.6400 -77.0617 28° Northeast 246 283 31,000  Level Washington Center
Thu 12:07:35 PM 35.7031 -77.0192 29° Northeast 251 289 31,000  Level Washington Center
Thu 12:08:36 PM 35.7725 -76.9794 25° Northeast 256 295 31,000  Level Washington Center
Thu 12:09:34 PM 35.8356 -76.9397 27° Northeast 261 300 31,000  Level Washington Center
Thu 12:10:34 PM 35.9006 -76.8947 29° Northeast 261 300 31,000  Level Washington Center
Thu 12:11:35 PM 35.9678 -76.8572 24° Northeast 261 300 31,000  Level Washington Center
Thu 12:12:35 PM 36.0331 -76.8147 28° Northeast 261 300 31,000  Level Washington Center
Thu 12:13:34 PM 36.1003 -76.7744 26° Northeast 261 300 31,000  Level Washington Center
Thu 12:14:34 PM 36.1653 -76.7317 28° Northeast 261 300 31,000  Level Washington Center
Thu 12:15:34 PM 36.2344 -76.6917 25° Northeast 261 300 31,000  Level Washington Center
Thu 12:16:35 PM 36.2994 -76.6486 28° Northeast 261 300 31,000  Level Washington Center
Thu 12:17:35 PM 36.3667 -76.6083 26° Northeast 261 300 31,000  Level Washington Center
Thu 12:18:36 PM 36.4339 -76.5653 27° Northeast 261 300 31,000  Level Washington Center
Thu 12:19:36 PM 36.5031 -76.5197 28° Northeast 261 300 31,000  Level Washington Center
Thu 12:20:33 PM 36.5681 -76.4789 27° Northeast 261 300 31,000  Level Washington Center
Thu 12:21:35 PM 36.6392 -76.4383 25° Northeast 261 300 31,000  Level Washington Center
Thu 12:22:35 PM 36.7061 -76.3925 29° Northeast 261 300 31,000  Level Washington Center
Thu 12:23:34 PM 36.7775 -76.3414 30° Northeast 261 300 31,000  Level Washington Center
Thu 12:24:34 PM 36.8444 -76.2978 28° Northeast 261 300 31,000  Level Washington Center
Thu 12:25:35 PM 36.9072 -76.2594 26° Northeast 261 300 31,000  Level Washington Center
Thu 12:26:36 PM 36.9722 -76.2158 28° Northeast 261 300 31,000  Level Washington Center
Thu 12:27:36 PM 37.0414 -76.1722 27° Northeast 261 300 31,000  Level Washington Center
Thu 12:28:33 PM 37.1144 -76.1311 24° Northeast 272 313 31,000  Level Washington Center
Thu 12:29:34 PM 37.1814 -76.0872 28° Northeast 272 313 31,000  Level Washington Center
Thu 12:30:34 PM 37.2506 -76.0433 27° Northeast 272 313 31,000  Level Washington Center
Thu 12:31:35 PM 37.3194 -75.9992 27° Northeast 272 313 31,000  Level Washington Center
Thu 12:32:33 PM 37.3864 -75.9553 28° Northeast 267 307 31,000  Level Washington Center
Thu 12:33:34 PM 37.4511 -75.9111 28° Northeast 267 307 31,000  Level Washington Center
Thu 12:34:35 PM 37.5181 -75.8667 28° Northeast 261 300 31,000  Level Washington Center
Thu 12:35:36 PM 37.5847 -75.8225 28° Northeast 261 300 31,000  Level Washington Center
Thu 12:36:34 PM 37.6494 -75.7781 29° Northeast 261 300 31,000  Level Washington Center
Thu 12:37:34 PM 37.7142 -75.7389 26° Northeast 261 300 31,000  Level Washington Center
Thu 12:38:34 PM 37.7789 -75.6942 29° Northeast 261 300 31,000  Level Washington Center
Thu 12:39:35 PM 37.8436 -75.6522 27° Northeast 261 300 31,000  Level Washington Center
Thu 12:40:36 PM 37.9103 -75.6103 26° Northeast 261 300 31,000  Level Washington Center
Thu 12:41:36 PM 37.9750 -75.5681 27° Northeast 261 300 31,000  Level Washington Center
Thu 12:42:33 PM 38.0356 -75.5181 33° Northeast 261 300 31,000  Level Washington Center
Thu 12:43:34 PM 38.0897 -75.4544 43° Northeast 261 300 31,000  Level Washington Center
Thu 12:44:35 PM 38.1481 -75.3964 38° Northeast 261 300 31,000  Level Washington Center
Thu 12:45:35 PM 38.2061 -75.3303 42° Northeast 261 300 31,000  Level Washington Center
Thu 12:46:36 PM 38.2622 -75.2744 38° Northeast 254 292 31,000  Level Washington Center
Thu 12:47:34 PM 38.3081 -75.2239 41° Northeast 254 292 31,000  Level Washington Center
Thu 12:48:35 PM 38.3642 -75.1547 44° Northeast 254 292 31,000  Level Washington Center
Thu 12:49:36 PM 38.4203 -75.1014 37° Northeast 259 298 31,000  Level Washington Center
Thu 12:50:34 PM 38.4761 -75.0375 42° Northeast 259 298 31,000  Level Washington Center
Thu 12:52:35 PM 38.5883 -74.9225 39° Northeast 254 292 31,000  Level Washington Center
Thu 12:53:35 PM 38.6419 -74.8633 41° Northeast 254 292 31,000  Level Washington Center
Thu 12:54:36 PM 38.6958 -74.8069 39° Northeast 254 292 31,000  Level Washington Center
Thu 12:55:34 PM 38.7519 -74.7478 39° Northeast 254 292 31,000  Level Washington Center
Thu 12:57:00 PM 38.8251 -74.6684 40° Northeast  Level FlightAware Approximate
Thu 12:57:35 PM 38.8614 -74.6292 40° Northeast 254 292 31,000  Level Washington Center
Thu 12:58:36 PM 38.9150 -74.5697 41° Northeast 254 292 31,000  Level Washington Center
Thu 12:59:34 PM 38.9769 -74.5047 39° Northeast 254 292 31,000  Level Washington Center
Thu 01:00:35 PM 39.0306 -74.4453 41° Northeast 254 292 31,000  Level Washington Center
Thu 01:01:34 PM 39.0844 -74.3883 39° Northeast 254 292 31,000  Level Washington Center
Thu 01:02:34 PM 39.1358 -74.3286 42° Northeast 254 292 31,000  Level Washington Center
Thu 01:03:35 PM 39.1914 -74.2714 39° Northeast 254 292 31,000  Level Washington Center
Thu 01:05:08 PM 39.2592 -74.1944 41° Northeast 263 303 31,000  Level Boston Center
Thu 01:06:08 PM 39.3225 -74.1239 41° Northeast 263 303 31,000  Level Boston Center
Thu 01:07:08 PM 39.3756 -74.0633 41° Northeast 263 303 31,000  Level Boston Center
Thu 01:08:08 PM 39.4306 -74.0058 39° Northeast 258 297 31,000  Level Boston Center
Thu 01:09:08 PM 39.4833 -73.9478 40° Northeast 258 297 31,000  Level Boston Center
Thu 01:10:08 PM 39.5364 -73.8897 40° Northeast 258 297 31,000  Level Boston Center
Thu 01:11:08 PM 39.5869 -73.8317 42° Northeast 253 291 31,000  Level Boston Center
Thu 01:12:08 PM 39.6461 -73.7656 41° Northeast 253 291 31,000  Level Boston Center
Thu 01:13:08 PM 39.6906 -73.7178 40° Northeast 246 283 31,000  Level Boston Center
Thu 01:14:20 PM 39.7517 -73.6461 42° Northeast 246 283 31,000  Level Boston Center
Thu 01:15:20 PM 39.8128 -73.5689 44° Northeast 239 275 31,000  Level Boston Center
Thu 01:16:20 PM 39.8594 -73.5050 46° Northeast 239 275 31,000  Level Boston Center
Thu 01:17:20 PM 39.9078 -73.4408 46° Northeast 245 282 31,000 -300 Level Boston Center
Thu 01:18:20 PM 39.9564 -73.3819 43° Northeast 245 282 30,400 -682 Descending Boston Center
Thu 01:19:32 PM 40.0111 -73.3122 44° Northeast 255 293 29,500 -955 Descending Boston Center
Thu 01:20:32 PM 40.0761 -73.2236 46° Northeast 261 300 28,300 -1,150 Descending Boston Center
Thu 01:21:32 PM 40.1331 -73.1511 44° Northeast 268 308 27,200 -1,050 Descending Boston Center
Thu 01:22:32 PM 40.1897 -73.0756 46° Northeast 274 315 26,200 -1,000 Descending Boston Center
Thu 01:23:32 PM 40.2464 -72.9975 46° Northeast 281 323 25,200 -600 Descending Boston Center
Thu 01:24:32 PM 40.2989 -72.9269 46° Northeast 281 323 25,000 -250 Descending Boston Center
Thu 01:25:32 PM 40.3492 -72.8594 46° Northeast 275 316 24,700 -600 Descending Boston Center
Thu 01:26:32 PM 40.4033 -72.7861 46° Northeast 269 310 23,800 -900 Descending Boston Center
Thu 01:27:32 PM 40.4600 -72.7156 43° Northeast 274 315 22,900 -900 Descending Boston Center
Thu 01:28:32 PM 40.4997 -72.6611 46° Northeast 274 315 22,000 -1,100 Descending Boston Center
Thu 01:29:32 PM 40.5622 -72.5711 48° Northeast 274 315 20,700 -1,200 Descending Boston Center
Thu 01:30:32 PM 40.6186 -72.5003 44° Northeast 274 315 19,600 -1,100 Descending Boston Center
Thu 01:31:32 PM 40.6686 -72.4319 46° Northeast 274 315 18,500 -850 Descending Boston Center
Thu 01:32:32 PM 40.7228 -72.3606 45° Northeast 274 315 17,900 -900 Descending Boston Center
Thu 01:33:32 PM 40.7728 -72.2922 46° Northeast 269 310 16,700 -1,200 Descending Boston Center
Thu 01:34:32 PM 40.8247 -72.2233 45° Northeast 269 310 15,500 -1,200 Descending Boston Center
Thu 01:34:52 PM 40.8414 -72.2042 41° Northeast 263 303 15,100 -1,100 Descending Boston Center
Thu 01:35:32 PM 40.8744 -72.1547 49° Northeast 263 303 14,400 -1,187 Descending Boston Center
Thu 01:36:23 PM 40.9203 -72.1022 41° Northeast 265 305 13,300 -1,169 Descending Boston Center
Thu 01:37:30 PM 40.9742 -72.0250 47° Northeast 261 300 12,100 -1,043 Descending Boston Center
Thu 01:38:18 PM 41.0136 -71.9697 47° Northeast 256 295 11,300 -936 Descending Boston Center
Thu 01:39:19 PM 41.0592 -71.8978 50° Northeast 253 291 10,400 -885 Descending Boston Center
Thu 01:40:20 PM 41.1067 -71.8342 45° Northeast 251 289 9,500 -893 Descending Boston Center
Thu 01:41:20 PM 41.1522 -71.7675 48° Northeast 243 280 8,600 -945 Descending Boston Center
Thu 01:42:27 PM 41.1994 -71.6897 51° Northeast 238 274 7,500 -938 Descending Boston Center
Thu 01:43:28 PM 41.2408 -71.6258 49° Northeast 238 274 6,600 -936 Descending Boston Center
Thu 01:44:16 PM 41.2800 -71.5700 47° Northeast 231 266 5,800 -936 Descending Boston Center
Thu 01:45:17 PM 41.3192 -71.5114 48° Northeast 225 259 4,900 -934 Descending Boston Center
Thu 01:46:18 PM 41.3603 -71.4500 48° Northeast 222 255 3,900 -934 Descending Boston Center
Thu 01:47:19 PM 41.3992 -71.3858 51° Northeast 224 258 3,000 -466 Descending Boston Center
Thu 01:48:14 PM 41.4361 -71.3269 50° Northeast 224 258 3,000  Level Boston Center
Thu 01:49:21 PM 41.4833 -71.2569 48° Northeast 217 250 3,000  Level Boston Center
Thu 01:50:21 PM 41.5225 -71.2033 46° Northeast 209 241 3,000 -298 Level Boston Center
Thu 01:51:22 PM 41.5764 -71.1747 22° Northeast 216 249 2,400 -393 Descending Boston Center
Thu 01:52:23 PM 41.6153 -71.1211 46° Northeast 205 236 2,200 -344 Descending Boston Center
Thu 01:53:24 PM 41.6500 -71.0647 50° Northeast 188 216 1,700 -517 Descending Boston Center
Thu 01:54:19 PM 41.6808 -71.0281 42° Northeast 170 196 1,200 -639 Descending Boston Center
Thu 01:55:26 PM 41.6886 -70.9806 78° East 120 138 400 -716 Descending Boston Center
Thu 01:57:00 PM 41.6766 -70.9578 51° Northeast  Level Estimated
Thu 02:04:00 PM 41.6766 -70.9578 51° Northeast  Level Estimated
Thu 02:05:00 PM 41.6766 -70.9578 51° Northeast  Level Estimated
Thu 02:06:00 PM 41.6766 -70.9578 51° Northeast  Level Estimated
Thu 02:07:00 PM 41.6766 -70.9578 51° Northeast  Level Estimated

Login

Don't have an account? Register now (free) for customized features, flight alerts, and more!